Time;durP1;ratioP1;P1;durP2;ratioP2;P2;SDS_P1;SDS_P2;PMS_P1;PMS_P2;Temp;Humidity;BMP_temperature;BMP_pressure;BME280_temperature;BME280_humidity;BME280_pressure;Samples;Min_cycle;Max_cycle;Signal;HPM_P1;HPM_P2
2023/07/12 00:02:38;;;;;;;3.33;1.30;;;;;;;17.71;100.00;100761.38;5087954;28;20032;-76
2023/07/12 00:05:27;;;;;;;3.20;1.40;;;;;;;17.71;100.00;100761.38;5069298;28;20039;-74
2023/07/12 00:08:21;;;;;;;2.63;1.40;;;;;;;17.70;100.00;100756.97;5071317;28;20024;-75
2023/07/12 00:11:15;;;;;;;4.20;1.38;;;;;;;17.68;100.00;100745.56;5088161;28;20028;-74
2023/07/12 00:14:01;;;;;;;2.70;1.30;;;;;;;17.67;100.00;100745.66;5087096;28;20032;-76
2023/07/12 00:16:46;;;;;;;3.08;1.30;;;;;;;17.64;100.00;100749.44;5087155;28;20118;-75
2023/07/12 00:19:32;;;;;;;2.67;1.35;;;;;;;17.61;100.00;100753.19;5084948;28;20536;-75
2023/07/12 00:22:18;;;;;;;4.32;1.35;;;;;;;17.60;100.00;100739.94;5070178;27;20047;-75
2023/07/12 00:25:04;;;;;;;1.75;1.10;;;;;;;17.58;100.00;100737.38;5062389;27;20377;-75
2023/07/12 00:27:50;;;;;;;2.88;1.42;;;;;;;17.56;100.00;100731.31;5092052;27;20043;-74
2023/07/12 00:30:37;;;;;;;2.78;1.65;;;;;;;17.57;100.00;100732.13;5090919;27;20068;-76
2023/07/12 00:33:23;;;;;;;3.40;1.40;;;;;;;17.57;100.00;100733.00;5076209;27;20044;-76
2023/07/12 00:36:32;;;;;;;4.88;1.50;;;;;;;17.57;100.00;100716.94;5076678;27;20044;-76
2023/07/12 00:39:17;;;;;;;6.70;1.88;;;;;;;17.58;100.00;100723.13;5091082;27;20034;-75
2023/07/12 00:42:19;;;;;;;4.47;1.50;;;;;;;17.57;100.00;100726.78;5092473;27;20644;-76
2023/07/12 00:45:06;;;;;;;2.67;1.35;;;;;;;17.56;100.00;100717.06;5062923;27;20047;-75
2023/07/12 00:47:51;;;;;;;2.35;1.40;;;;;;;17.55;100.00;100726.06;5074142;27;22003;-73
2023/07/12 00:50:38;;;;;;;4.43;1.45;;;;;;;17.54;100.00;100727.03;5090132;27;20048;-74
2023/07/12 00:53:24;;;;;;;3.72;1.83;;;;;;;17.53;100.00;100730.69;5069678;27;20043;-75
2023/07/12 00:56:11;;;;;;;2.60;1.55;;;;;;;17.52;100.00;100721.78;5073959;27;20993;-75
2023/07/12 00:59:11;;;;;;;3.08;2.03;;;;;;;17.50;100.00;100716.56;5075916;27;20342;-75
2023/07/12 01:01:59;;;;;;;2.90;1.80;;;;;;;17.47;100.00;100711.44;5089397;27;20523;-75
2023/07/12 01:04:47;;;;;;;5.65;1.90;;;;;;;17.46;100.00;100725.81;5057991;27;20035;-75
2023/07/12 01:07:34;;;;;;;7.32;2.13;;;;;;;17.45;100.00;100721.44;5072864;27;22291;-75
2023/07/12 01:10:19;;;;;;;4.25;1.98;;;;;;;17.43;100.00;100728.69;5075260;27;20063;-75
2023/07/12 01:13:06;;;;;;;5.32;1.92;;;;;;;17.44;100.00;100724.22;5088045;27;20455;-74
2023/07/12 01:15:52;;;;;;;5.15;1.90;;;;;;;17.44;100.00;100724.22;5073571;27;20035;-75
2023/07/12 01:18:39;;;;;;;5.07;1.63;;;;;;;17.43;100.00;100720.66;5075619;27;20141;-75
2023/07/12 01:21:27;;;;;;;5.07;2.10;;;;;;;17.44;100.00;100729.56;5092502;27;20052;-74
2023/07/12 01:24:13;;;;;;;3.92;1.90;;;;;;;17.42;100.00;100724.31;5087937;27;20452;-74
2023/07/12 01:27:03;;;;;;;2.58;1.73;;;;;;;17.44;100.00;100718.84;5091258;27;20128;-73
2023/07/12 01:29:49;;;;;;;6.70;1.85;;;;;;;17.42;100.00;100720.81;5076601;27;20043;-74
2023/07/12 01:32:37;;;;;;;7.68;2.10;;;;;;;17.42;100.00;100702.09;5076438;27;20051;-76
2023/07/12 01:35:23;;;;;;;3.25;2.00;;;;;;;17.42;100.00;100696.72;5075388;27;20763;-74
2023/07/12 01:38:08;;;;;;;4.70;2.20;;;;;;;17.42;100.00;100699.41;5092493;27;20092;-74
2023/07/12 01:40:54;;;;;;;4.13;2.22;;;;;;;17.41;100.00;100703.88;5091371;27;20134;-74
2023/07/12 01:43:40;;;;;;;7.05;2.20;;;;;;;17.42;100.00;100721.66;5074435;27;20141;-74
2023/07/12 01:46:26;;;;;;;7.10;2.28;;;;;;;17.39;100.00;100711.19;5090453;27;20050;-75
2023/07/12 01:49:11;;;;;;;8.70;2.20;;;;;;;17.37;100.00;100703.28;5074633;27;20446;-76
2023/07/12 01:51:57;;;;;;;4.28;2.30;;;;;;;17.37;100.00;100705.09;5073175;27;20063;-73
2023/07/12 01:54:43;;;;;;;6.82;2.47;;;;;;;17.36;100.00;100696.22;5088613;27;20043;-76
2023/07/12 01:57:28;;;;;;;5.70;2.20;;;;;;;17.36;100.00;100706.91;5092719;27;20303;-74
2023/07/12 02:00:14;;;;;;;6.00;2.25;;;;;;;17.35;100.00;100696.34;5087993;27;20048;-75
2023/07/12 02:03:00;;;;;;;8.82;2.33;;;;;;;17.35;100.00;100690.97;5092335;27;20741;-74
2023/07/12 02:05:46;;;;;;;6.82;2.30;;;;;;;17.33;100.00;100682.22;5089037;27;20716;-74
2023/07/12 02:08:32;;;;;;;6.15;2.20;;;;;;;17.31;100.00;100663.59;5091009;27;20027;-74
2023/07/12 02:11:18;;;;;;;6.13;2.20;;;;;;;17.30;100.00;100666.41;5087559;27;20035;-75
2023/07/12 02:14:03;;;;;;;7.28;2.15;;;;;;;17.29;100.00;100656.66;5074060;27;20168;-75
2023/07/12 02:16:49;;;;;;;9.98;2.53;;;;;;;17.26;100.00;100675.66;5074185;27;20027;-75
2023/07/12 02:19:35;;;;;;;6.03;2.60;;;;;;;17.23;100.00;100669.53;5070297;27;20073;-74
2023/07/12 02:22:21;;;;;;;4.88;2.03;;;;;;;17.21;100.00;100667.97;5089033;27;20540;-74
2023/07/12 02:25:07;;;;;;;7.88;2.63;;;;;;;17.17;100.00;100687.91;5090108;27;20497;-74
2023/07/12 02:27:53;;;;;;;7.10;2.50;;;;;;;17.14;100.00;100688.09;5071433;27;20046;-74
2023/07/12 02:30:43;;;;;;;6.25;2.45;;;;;;;17.13;100.00;100714.03;5088615;27;20557;-75
2023/07/12 02:33:29;;;;;;;6.40;2.63;;;;;;;17.12;100.00;100706.97;5091017;27;20035;-74
2023/07/12 02:36:15;;;;;;;4.93;2.22;;;;;;;17.10;100.00;100723.13;5088792;27;20046;-75
2023/07/12 02:39:01;;;;;;;8.82;2.88;;;;;;;17.09;100.00;100717.88;5074421;27;20059;-73
2023/07/12 02:41:46;;;;;;;8.27;2.78;;;;;;;17.09;100.00;100704.50;5088242;27;20050;-74
2023/07/12 02:44:32;;;;;;;9.32;3.00;;;;;;;17.10;100.00;100682.13;5089600;27;20058;-75
2023/07/12 02:47:18;;;;;;;10.50;2.92;;;;;;;17.10;100.00;100660.75;5089049;27;20756;-74
2023/07/12 02:50:05;;;;;;;11.38;2.97;;;;;;;17.07;100.00;100687.72;5070761;27;20612;-74
2023/07/12 02:52:54;;;;;;;10.63;3.20;;;;;;;17.08;100.00;100676.06;5089034;27;20043;-74
2023/07/12 02:55:40;;;;;;;8.75;3.05;;;;;;;17.09;100.00;100675.09;5069670;27;20502;-74
2023/07/12 02:58:25;;;;;;;11.35;3.00;;;;;;;17.09;100.00;100683.13;5087187;27;20415;-75
2023/07/12 03:01:11;;;;;;;7.65;2.75;;;;;;;17.07;100.00;100687.72;5089090;27;20733;-74
2023/07/12 03:03:57;;;;;;;13.98;3.20;;;;;;;17.08;100.00;100668.03;5090683;27;20407;-74
2023/07/12 03:06:43;;;;;;;4.60;2.20;;;;;;;17.09;100.00;100664.41;5075320;27;20502;-74
2023/07/12 03:09:29;;;;;;;8.82;3.10;;;;;;;17.08;100.00;100662.69;5074642;27;20544;-75
2023/07/12 03:12:15;;;;;;;8.95;2.75;;;;;;;17.13;100.00;100660.53;5072706;27;21235;-74
2023/07/12 03:15:01;;;;;;;9.95;3.20;;;;;;;17.13;100.00;100671.22;5086167;28;20050;-75
2023/07/12 03:17:47;;;;;;;8.80;3.10;;;;;;;17.15;100.00;100663.09;5087686;27;20035;-75
2023/07/12 03:20:33;;;;;;;9.45;3.10;;;;;;;17.17;100.00;100661.97;5087412;28;20046;-74
2023/07/12 03:23:18;;;;;;;8.50;3.28;;;;;;;17.18;100.00;100678.91;5087586;27;20964;-74
2023/07/12 03:26:04;;;;;;;8.10;3.03;;;;;;;17.18;100.00;100679.75;5087823;28;20042;-74
2023/07/12 03:28:50;;;;;;;9.50;3.22;;;;;;;17.19;100.00;100681.47;5074362;28;20047;-74
2023/07/12 03:31:36;;;;;;;6.53;2.92;;;;;;;17.18;100.00;100668.19;5075089;28;20066;-75
2023/07/12 03:34:22;;;;;;;5.57;2.50;;;;;;;17.18;100.00;100676.22;5088756;28;20049;-74
2023/07/12 03:37:07;;;;;;;6.70;2.78;;;;;;;17.18;100.00;100684.25;5086529;28;20051;-75
2023/07/12 03:39:53;;;;;;;6.63;2.55;;;;;;;17.17;100.00;100685.22;5087995;28;20134;-74
2023/07/12 03:42:39;;;;;;;7.18;2.53;;;;;;;17.15;100.00;100682.66;5087379;28;20815;-75
2023/07/12 03:45:24;;;;;;;5.80;3.10;;;;;;;17.14;100.00;100688.97;5087275;28;20032;-75
2023/07/12 03:48:10;;;;;;;10.15;2.95;;;;;;;17.13;100.00;100689.94;5091352;28;20054;-74
2023/07/12 03:50:56;;;;;;;10.52;2.78;;;;;;;17.14;100.00;100691.66;5090345;28;20044;-74
2023/07/12 03:53:42;;;;;;;12.18;3.60;;;;;;;17.13;100.00;100681.94;5087984;28;20036;-75
2023/07/12 03:56:28;;;;;;;6.70;3.08;;;;;;;17.13;100.00;100694.44;5090618;27;20043;-76
2023/07/12 03:59:13;;;;;;;10.13;2.72;;;;;;;17.13;100.00;100689.09;5078418;27;20046;-75
2023/07/12 04:01:59;;;;;;;9.73;2.80;;;;;;;17.12;100.00;100688.25;5089179;27;21227;-75
2023/07/12 04:04:45;;;;;;;11.20;3.03;;;;;;;17.13;100.00;100702.47;5090068;27;20104;-75
2023/07/12 04:07:31;;;;;;;11.27;3.50;;;;;;;17.13;100.00;100691.75;5091054;27;20751;-74
2023/07/12 04:10:16;;;;;;;7.97;3.17;;;;;;;17.11;100.00;100694.56;5094142;27;20887;-74
2023/07/12 04:13:02;;;;;;;12.98;3.13;;;;;;;17.08;100.00;100700.13;5091087;27;20058;-75
2023/07/12 04:15:53;;;;;;;11.10;2.83;;;;;;;17.03;100.00;100692.47;5092544;27;20118;-73
2023/07/12 04:18:38;;;;;;;6.13;3.10;;;;;;;17.01;100.00;100705.06;5076558;27;20123;-74
2023/07/12 04:21:24;;;;;;;7.47;3.00;;;;;;;16.97;100.00;100707.13;5089024;27;20043;-74
2023/07/12 04:24:10;;;;;;;9.93;2.95;;;;;;;16.97;100.00;100715.16;5076585;27;20047;-74
2023/07/12 04:26:57;;;;;;;10.10;3.28;;;;;;;17.00;100.00;100714.03;5092945;27;20044;-75
2023/07/12 04:29:43;;;;;;;11.70;3.33;;;;;;;17.03;100.00;100708.50;5093830;27;20058;-74
2023/07/12 04:32:29;;;;;;;7.45;3.20;;;;;;;17.06;100.00;100702.91;5063164;28;20043;-74
2023/07/12 04:35:15;;;;;;;6.90;3.03;;;;;;;17.10;100.00;100714.22;5055950;28;20041;-75
2023/07/12 04:38:01;;;;;;;10.27;3.38;;;;;;;17.13;100.00;100713.16;5062512;28;20377;-74
2023/07/12 04:40:54;;;;;;;12.10;3.55;;;;;;;17.18;100.00;100722.56;5060297;28;21981;-74
2023/07/12 04:43:39;;;;;;;13.18;3.28;;;;;;;17.24;100.00;100727.44;5071867;28;21087;-74
2023/07/12 04:46:25;;;;;;;8.48;2.70;;;;;;;17.31;100.00;100732.31;5058140;28;20790;-74
2023/07/12 04:49:11;;;;;;;13.23;3.47;;;;;;;17.36;100.00;100735.50;5057730;28;21019;-75
2023/07/12 04:51:57;;;;;;;10.60;3.10;;;;;;;17.40;100.00;100726.28;5057697;28;20066;-74
2023/07/12 04:54:45;;;;;;;7.22;2.97;;;;;;;17.43;100.00;100731.38;5058617;28;20109;-75
2023/07/12 04:57:31;;;;;;;12.85;3.50;;;;;;;17.43;100.00;100720.66;5058740;28;20040;-74
2023/07/12 05:00:17;;;;;;;7.95;3.05;;;;;;;17.44;100.00;100711.66;5057582;28;20140;-75
2023/07/12 05:03:03;;;;;;;9.75;3.30;;;;;;;17.43;100.00;100707.28;5057011;28;20041;-74
2023/07/12 05:05:49;;;;;;;10.75;3.15;;;;;;;17.40;100.00;100710.22;5057284;28;20598;-74
2023/07/12 05:08:35;;;;;;;10.50;3.65;;;;;;;17.38;100.00;100713.00;5059910;28;20128;-74
2023/07/12 05:11:21;;;;;;;6.28;2.95;;;;;;;17.37;100.00;100711.31;5057437;28;20045;-74
2023/07/12 05:14:07;;;;;;;8.10;2.83;;;;;;;17.38;100.00;100713.00;5066390;28;20119;-75
2023/07/12 05:16:52;;;;;;;7.43;2.80;;;;;;;17.44;100.00;100721.53;5058192;28;20040;-75
2023/07/12 05:19:38;;;;;;;9.85;2.88;;;;;;;17.48;100.00;100721.19;5057430;28;20163;-73
2023/07/12 05:22:24;;;;;;;11.23;3.20;;;;;;;17.55;100.00;100710.88;5055257;28;20048;-74
2023/07/12 05:25:11;;;;;;;12.43;3.13;;;;;;;17.63;100.00;100713.78;5053928;28;20036;-75
2023/07/12 05:27:57;;;;;;;7.03;3.25;;;;;;;17.68;100.00;100724.13;5057596;28;20113;-75
2023/07/12 05:30:43;;;;;;;9.85;2.78;;;;;;;17.76;100.00;100720.88;5057764;28;20101;-75
2023/07/12 05:33:28;;;;;;;7.60;3.00;;;;;;;17.85;100.00;100724.63;5047181;28;20052;-75
2023/07/12 05:36:14;;;;;;;10.35;2.95;;;;;;;17.91;100.00;100732.19;5045169;28;20072;-74
2023/07/12 05:39:00;;;;;;;11.80;3.40;;;;;;;17.97;100.00;100723.66;5047711;28;20044;-75
2023/07/12 05:41:46;;;;;;;11.30;3.15;;;;;;;18.02;100.00;100736.69;5048668;28;20455;-75
2023/07/12 05:44:32;;;;;;;8.95;3.15;;;;;;;18.12;100.00;100743.06;5046824;28;20029;-75
2023/07/12 05:47:18;;;;;;;13.45;3.20;;;;;;;18.24;100.00;100743.91;5048133;28;20044;-74
2023/07/12 05:50:05;;;;;;;11.70;3.55;;;;;;;18.42;100.00;100740.75;5038892;28;20051;-76
2023/07/12 05:52:51;;;;;;;6.68;2.58;;;;;;;18.53;100.00;100747.94;5043965;28;21083;-75
2023/07/12 05:55:37;;;;;;;7.90;2.40;;;;;;;18.53;100.00;100759.47;5047135;28;20040;-75
2023/07/12 05:58:23;;;;;;;8.90;2.72;;;;;;;18.50;100.00;100759.75;5047437;28;20047;-75
2023/07/12 06:01:09;;;;;;;8.48;2.80;;;;;;;18.48;100.00;100748.31;5044852;28;20048;-74
2023/07/12 06:03:55;;;;;;;8.48;2.50;;;;;;;18.45;100.00;100761.94;5045882;28;20051;-75
2023/07/12 06:06:41;;;;;;;9.55;3.20;;;;;;;18.45;100.00;100759.25;5044319;28;21672;-74
2023/07/12 06:09:27;;;;;;;7.22;2.80;;;;;;;18.54;100.00;100760.34;5049256;28;20127;-74
2023/07/12 06:12:13;;;;;;;11.90;3.42;;;;;;;18.62;100.00;100759.72;5047886;28;20052;-75
2023/07/12 06:14:58;;;;;;;14.15;3.30;;;;;;;18.57;100.00;100768.13;5046965;28;20459;-75
2023/07/12 06:17:44;;;;;;;7.50;2.92;;;;;;;18.48;100.00;100759.03;5047467;28;20035;-75
2023/07/12 06:20:30;;;;;;;9.32;2.92;;;;;;;18.57;100.00;100762.75;5041280;28;20602;-75
2023/07/12 06:23:16;;;;;;;8.52;2.92;;;;;;;18.78;100.00;100754.81;5042895;28;20043;-75
2023/07/12 06:26:03;;;;;;;8.40;2.75;;;;;;;19.03;100.00;100751.97;5046570;28;20072;-74
2023/07/12 06:28:48;;;;;;;8.75;2.78;;;;;;;19.30;100.00;100759.56;5046998;28;20127;-75
2023/07/12 06:31:34;;;;;;;10.52;3.20;;;;;;;19.59;100.00;100768.78;5047495;27;21626;-75
2023/07/12 06:34:20;;;;;;;8.25;2.75;;;;;;;19.66;100.00;100759.22;5095160;27;20088;-76
2023/07/12 06:37:08;;;;;;;8.20;2.38;;;;;;;19.73;100.00;100767.63;5077827;27;20023;-74
2023/07/12 06:39:54;;;;;;;6.70;2.20;;;;;;;19.65;100.00;100769.13;5094214;27;20488;-76
2023/07/12 06:42:39;;;;;;;8.38;2.83;;;;;;;19.65;100.00;100774.50;5093157;27;20058;-75
2023/07/12 06:45:25;;;;;;;10.98;3.10;;;;;;;19.65;100.00;100787.06;5096387;27;20491;-75
2023/07/12 06:48:11;;;;;;;9.85;2.65;;;;;;;19.62;100.00;100790.84;5095235;27;20042;-75
2023/07/12 06:50:58;;;;;;;10.23;2.65;;;;;;;19.44;100.00;100787.06;5092925;27;20040;-75
2023/07/12 06:53:43;;;;;;;9.57;3.10;;;;;;;19.18;100.00;100788.25;5094668;27;20035;-75
2023/07/12 06:56:29;;;;;;;8.38;3.13;;;;;;;18.92;100.00;100793.06;5094154;27;20043;-75
2023/07/12 06:59:15;;;;;;;8.30;3.25;;;;;;;18.73;100.00;100786.50;5090820;27;20048;-74
2023/07/12 07:02:01;;;;;;;9.55;2.85;;;;;;;18.64;100.00;100789.94;5089322;27;20043;-75
2023/07/12 07:04:46;;;;;;;8.48;2.83;;;;;;;18.57;100.00;100784.22;5088132;27;20039;-75
2023/07/12 07:07:32;;;;;;;6.97;2.65;;;;;;;18.55;100.00;100787.03;5088437;27;20677;-75
2023/07/12 07:10:19;;;;;;;8.27;2.60;;;;;;;18.45;100.00;100794.09;5091335;27;20127;-76
2023/07/12 07:13:05;;;;;;;6.38;2.17;;;;;;;18.31;100.00;100793.38;5089430;27;20039;-75
2023/07/12 07:15:51;;;;;;;4.40;2.40;;;;;;;18.12;100.00;100801.16;5088118;27;20062;-74
2023/07/12 07:18:36;;;;;;;9.93;2.95;;;;;;;18.03;100.00;100814.25;5078006;28;20037;-75
2023/07/12 07:21:23;;;;;;;7.45;3.10;;;;;;;18.04;100.00;100817.81;5094187;27;20043;-75
2023/07/12 07:24:08;;;;;;;8.93;2.80;;;;;;;18.13;100.00;100824.28;5080436;27;20518;-74
2023/07/12 07:26:54;;;;;;;10.13;3.30;;;;;;;18.13;100.00;100826.97;5094461;27;20031;-75
2023/07/12 07:29:40;;;;;;;6.25;3.03;;;;;;;18.15;100.00;100833.06;5094078;28;20035;-75
2023/07/12 07:32:26;;;;;;;7.97;3.08;;;;;;;18.25;100.00;100831.34;5094474;27;20063;-75
2023/07/12 07:35:12;;;;;;;11.18;2.60;;;;;;;18.49;100.00;100838.44;5094726;28;20411;-75
2023/07/12 07:37:58;;;;;;;12.10;2.85;;;;;;;18.63;100.00;100839.19;5095326;28;20524;-75
2023/07/12 07:40:43;;;;;;;5.40;2.15;;;;;;;18.70;100.00;100840.41;5094577;28;20538;-75
2023/07/12 07:43:29;;;;;;;4.65;2.38;;;;;;;18.78;100.00;100837.94;5079657;28;20051;-74
2023/07/12 07:46:16;;;;;;;6.60;2.10;;;;;;;18.80;100.00;100838.66;5094739;28;20095;-74
2023/07/12 07:49:02;;;;;;;6.90;2.20;;;;;;;18.78;100.00;100842.47;5094052;28;20053;-75
2023/07/12 07:51:48;;;;;;;5.65;1.77;;;;;;;18.70;100.00;100851.13;5092515;28;20099;-75
2023/07/12 07:54:33;;;;;;;5.03;2.00;;;;;;;18.50;100.00;100858.91;5078091;28;20031;-75
2023/07/12 07:57:20;;;;;;;3.97;2.25;;;;;;;18.30;100.00;100860.50;5078093;28;20032;-74
2023/07/12 08:00:10;;;;;;;5.00;2.33;;;;;;;18.15;100.00;100867.91;5074424;28;20047;-78
2023/07/12 08:02:55;;;;;;;6.80;2.45;;;;;;;18.01;100.00;100861.75;5079363;28;20052;-75
2023/07/12 08:05:41;;;;;;;5.15;2.40;;;;;;;17.90;100.00;100853.66;5075994;28;20047;-75
2023/07/12 08:08:28;;;;;;;3.85;2.40;;;;;;;17.87;100.00;100852.06;5072739;28;20040;-75
2023/07/12 08:11:14;;;;;;;4.95;2.08;;;;;;;18.09;100.00;100868.38;5077685;28;20069;-74
2023/07/12 08:14:00;;;;;;;8.63;2.38;;;;;;;18.30;100.00;100864.00;5061604;28;20043;-74
2023/07/12 08:16:46;;;;;;;5.05;2.40;;;;;;;18.53;100.00;100873.91;5090670;28;20036;-75
2023/07/12 08:19:32;;;;;;;3.35;1.95;;;;;;;18.64;100.00;100865.00;5078982;28;20035;-76
2023/07/12 08:22:19;;;;;;;4.35;1.70;;;;;;;18.63;100.00;100874.03;5078237;28;20036;-75
2023/07/12 08:25:06;;;;;;;3.10;1.90;;;;;;;18.53;100.00;100869.38;5077712;28;20092;-76
2023/07/12 08:27:52;;;;;;;4.03;1.95;;;;;;;18.49;100.00;100875.97;5093428;28;20248;-76
2023/07/12 08:30:37;;;;;;;6.90;2.17;;;;;;;18.50;100.00;100876.81;5078857;28;20044;-74
2023/07/12 08:33:23;;;;;;;8.75;3.00;;;;;;;18.59;100.00;100874.25;5088889;28;20083;-74
2023/07/12 08:36:10;;;;;;;4.32;2.25;;;;;;;18.68;100.00;100882.56;5079554;28;20047;-76
2023/07/12 08:38:56;;;;;;;4.97;2.40;;;;;;;18.75;100.00;100897.19;5093535;28;20050;-76
2023/07/12 08:41:42;;;;;;;6.43;1.98;;;;;;;18.99;100.00;100885.47;5087089;28;20126;-75
2023/07/12 08:44:30;;;;;;;5.80;1.83;;;;;;;19.32;100.00;100882.84;5066284;27;20195;-75
2023/07/12 08:47:24;;;;;;;5.72;2.10;;;;;;;19.72;100.00;100886.78;5083363;27;20046;-74
2023/07/12 08:50:12;;;;;;;6.18;2.25;;;;;;;19.98;100.00;100892.66;5076619;27;20400;-73
2023/07/12 08:52:58;;;;;;;3.80;2.05;;;;;;;20.15;100.00;100896.59;5082830;27;21876;-74
2023/07/12 08:55:44;;;;;;;3.55;1.85;;;;;;;20.28;100.00;100895.53;5078983;27;20034;-74
2023/07/12 08:58:38;;;;;;;2.92;1.67;;;;;;;20.30;100.00;100913.22;5074955;27;20039;-73
2023/07/12 09:01:41;;;;;;;2.50;1.63;;;;;;;20.40;100.00;100921.38;5064490;27;20195;-77
2023/07/12 09:04:31;;;;;;;3.55;1.55;;;;;;;20.59;100.00;100907.16;5095677;27;20112;-73
2023/07/12 09:07:27;;;;;;;2.03;1.50;;;;;;;20.58;100.00;100913.53;5069199;27;20047;-75
2023/07/12 09:10:40;;;;;;;2.95;1.63;;;;;;;20.83;100.00;100915.91;5073438;27;20034;-74
2023/07/12 09:13:34;;;;;;;2.95;1.85;;;;;;;21.14;100.00;100926.69;5091642;27;20032;-77
2023/07/12 09:16:28;;;;;;;3.22;1.70;;;;;;;21.43;100.00;100915.13;5081254;27;20492;-75
2023/07/12 09:19:27;;;;;;;2.78;1.63;;;;;;;21.69;100.00;100923.53;5074561;27;20024;-75
2023/07/12 09:22:18;;;;;;;3.40;1.80;;;;;;;21.91;100.00;100931.47;5079257;27;20435;-74
2023/07/12 09:25:19;;;;;;;3.55;1.70;;;;;;;21.76;100.00;100937.28;5077734;27;20399;-75
2023/07/12 09:28:05;;;;;;;4.07;1.70;;;;;;;21.44;100.00;100922.19;5072903;27;20104;-74
2023/07/12 09:30:53;;;;;;;6.13;1.70;;;;;;;21.40;100.00;100936.91;5065326;27;20059;-74
2023/07/12 09:33:40;;;;;;;2.58;1.48;;;;;;;21.46;100.00;100939.06;5043175;27;20056;-76
2023/07/12 09:36:26;;;;;;;2.40;1.70;;;;;;;21.54;100.00;100941.94;5043768;27;20530;-75
2023/07/12 09:39:12;;;;;;;2.42;1.33;;;;;;;21.55;100.00;100950.84;5050250;27;20104;-75
2023/07/12 09:42:00;;;;;;;2.85;1.60;;;;;;;21.57;100.00;100955.09;5082656;27;22464;-74
2023/07/12 09:44:47;;;;;;;2.75;1.67;;;;;;;21.58;100.00;100951.41;5070692;27;20035;-74
2023/07/12 09:47:40;;;;;;;2.55;1.65;;;;;;;21.61;100.00;100954.84;5085284;27;20083;-74
2023/07/12 09:50:27;;;;;;;;;;;;;;;21.41;97.87;100960.19;5075169;27;20544;-75
2023/07/12 09:53:37;;;;;;;4.53;1.58;;;;;;;21.49;99.79;100954.94;5077690;27;20022;-75
2023/07/12 09:56:46;;;;;;;1.95;1.20;;;;;;;21.72;99.97;100960.09;5072630;27;20114;-75
2023/07/12 09:59:47;;;;;;;3.67;1.20;;;;;;;21.98;99.09;100973.03;5073569;27;20981;-75
2023/07/12 10:03:10;;;;;;;5.60;1.55;;;;;;;22.32;95.21;100969.88;5090906;27;21507;-76
2023/07/12 10:05:57;;;;;;;;;;;;;;;22.17;93.08;100982.13;5068189;27;20048;-75
2023/07/12 10:08:54;;;;;;;4.10;1.65;;;;;;;22.07;95.09;100977.56;5084705;27;19927;-75
2023/07/12 10:11:46;;;;;;;3.30;1.55;;;;;;;22.12;95.15;100977.16;5067028;27;20043;-74
2023/07/12 10:14:34;;;;;;;3.03;1.70;;;;;;;22.09;94.30;100972.03;5068214;27;20042;-75
2023/07/12 10:17:35;;;;;;;2.80;1.58;;;;;;;22.19;93.08;100980.13;5082862;27;20393;-75
2023/07/12 10:20:24;;;;;;;2.30;1.20;;;;;;;22.24;92.17;100973.28;5072081;27;20036;-76
2023/07/12 10:23:11;;;;;;;2.25;1.20;;;;;;;22.11;90.82;100972.72;5073765;27;20510;-74
2023/07/12 10:26:03;;;;;;;2.00;1.20;;;;;;;21.97;90.24;100980.25;5069610;27;20032;-74
2023/07/12 10:29:07;;;;;;;2.47;1.50;;;;;;;21.88;88.96;100982.94;5066006;27;20035;-74
2023/07/12 10:31:56;;;;;;;3.00;1.45;;;;;;;21.77;90.64;100973.16;5067985;27;20931;-74
2023/07/12 10:34:46;;;;;;;2.30;1.40;;;;;;;21.81;91.56;100977.28;5074800;27;20120;-73
2023/07/12 10:38:03;;;;;;;1.95;1.30;;;;;;;21.97;90.89;100985.66;5072411;27;20039;-74
2023/07/12 10:40:53;;;;;;;2.13;1.20;;;;;;;22.06;90.03;100978.56;5085338;27;21251;-73
2023/07/12 10:43:48;;;;;;;2.47;1.40;;;;;;;22.00;88.05;100987.22;5072079;27;20035;-74
2023/07/12 10:46:41;;;;;;;3.35;1.52;;;;;;;21.93;88.75;100996.84;5089794;27;20032;-74
2023/07/12 10:49:42;;;;;;;;;;;;;;;21.74;86.82;100993.16;5074277;27;20034;-74
2023/07/12 10:52:33;;;;;;;2.67;1.30;;;;;;;21.58;89.60;100999.91;5090998;27;19964;-73
2023/07/12 10:55:37;;;;;;;2.33;1.10;;;;;;;21.46;89.26;101006.38;5089736;27;20027;-74
2023/07/12 10:58:28;;;;;;;3.70;1.30;;;;;;;21.45;89.50;101010.06;5070562;27;20059;-74
2023/07/12 11:01:39;;;;;;;1.10;1.00;;;;;;;21.32;85.65;100999.56;5088190;27;20054;-74
2023/07/12 11:04:30;;;;;;;3.20;1.20;;;;;;;21.32;89.08;101026.47;5087065;27;20035;-75
2023/07/12 11:07:16;;;;;;;1.85;1.00;;;;;;;21.27;88.56;101026.03;5087808;27;20766;-74
2023/07/12 11:10:05;;;;;;;1.58;0.98;;;;;;;21.35;88.73;101020.81;5086963;27;20044;-73
2023/07/12 11:12:53;;;;;;;2.85;1.35;;;;;;;21.54;88.85;101025.41;5069939;27;20117;-74
2023/07/12 11:15:51;;;;;;;3.42;0.88;;;;;;;21.55;81.90;101032.50;5087638;27;20040;-76
2023/07/12 11:18:37;;;;;;;3.20;0.80;;;;;;;21.52;84.43;101032.75;5079983;27;20034;-73
2023/07/12 11:21:41;;;;;;;2.17;1.00;;;;;;;21.60;83.26;101036.59;5082527;27;20036;-75
2023/07/12 11:24:29;;;;;;;2.95;0.80;;;;;;;21.70;85.54;101041.06;5083506;27;20979;-74
2023/07/12 11:27:34;;;;;;;4.60;0.98;;;;;;;21.74;80.41;101047.06;5070674;28;20027;-75
2023/07/12 11:30:28;;;;;;;1.65;0.90;;;;;;;21.79;83.22;101049.31;5077117;27;20391;-74
2023/07/12 11:33:17;;;;;;;2.78;0.93;;;;;;;21.94;84.40;101058.69;5075679;28;20048;-74
2023/07/12 11:36:06;;;;;;;2.67;0.70;;;;;;;22.03;83.43;101046.25;5086517;28;20026;-73
2023/07/12 11:38:54;;;;;;;2.60;0.80;;;;;;;22.25;83.98;101055.03;5048923;28;20115;-75
2023/07/12 11:41:51;;;;;;;2.45;0.80;;;;;;;22.22;81.42;101066.13;5060063;28;20136;-73
2023/07/12 11:44:36;;;;;;;0.77;0.70;;;;;;;22.07;81.63;101058.44;5068955;28;20507;-74
2023/07/12 11:47:22;;;;;;;2.25;0.77;;;;;;;22.08;81.07;101070.94;5085067;28;20031;-72
2023/07/12 11:50:18;;;;;;;1.85;0.85;;;;;;;22.14;79.16;101065.94;5084369;28;20123;-74
2023/07/12 11:53:03;;;;;;;1.73;0.73;;;;;;;22.22;80.68;101068.81;5084620;28;20378;-73
2023/07/12 11:55:49;;;;;;;2.25;0.90;;;;;;;22.31;80.54;101069.78;5086809;28;20926;-72
2023/07/12 11:58:35;;;;;;;0.82;0.60;;;;;;;22.44;78.92;101074.94;5081557;28;20471;-73
2023/07/12 12:01:21;;;;;;;1.25;0.70;;;;;;;22.47;76.92;101082.72;5083373;28;20051;-74
2023/07/12 12:04:07;;;;;;;0.70;0.60;;;;;;;22.35;75.02;101072.06;5083517;28;22655;-74
2023/07/12 12:07:05;;;;;;;2.40;0.57;;;;;;;22.22;72.75;101068.81;5080778;28;21340;-73
2023/07/12 12:09:51;;;;;;;1.85;0.45;;;;;;;22.13;74.63;101084.00;5072210;28;20678;-73
2023/07/12 12:12:40;;;;;;;1.42;0.70;;;;;;;22.11;74.06;101091.34;5070393;28;20452;-74
2023/07/12 12:15:32;;;;;;;1.17;0.60;;;;;;;22.05;74.05;101092.75;5066785;28;20140;-73
2023/07/12 12:18:20;;;;;;;1.38;0.68;;;;;;;22.03;74.89;101092.06;5086474;27;20068;-74
2023/07/12 12:21:15;;;;;;;3.45;0.80;;;;;;;22.08;72.48;101095.19;5070231;27;20169;-74
2023/07/12 12:24:16;;;;;;;1.63;0.63;;;;;;;22.17;72.40;101090.78;5084358;27;20036;-74
2023/07/12 12:27:02;;;;;;;2.78;0.80;;;;;;;22.20;74.62;101089.66;5081843;27;20031;-73
2023/07/12 12:29:49;;;;;;;1.98;0.80;;;;;;;22.41;76.13;101094.94;5061518;27;20088;-74
2023/07/12 12:32:38;;;;;;;2.85;0.63;;;;;;;22.56;73.40;101090.00;5070921;27;20035;-74
2023/07/12 12:35:23;;;;;;;1.42;0.55;;;;;;;22.51;72.49;101098.50;5064942;27;21973;-71
2023/07/12 12:38:20;;;;;;;0.65;0.65;;;;;;;22.44;70.92;101096.50;5077638;27;20036;-74
2023/07/12 12:41:16;;;;;;;0.70;0.70;;;;;;;22.39;67.33;101096.94;5085907;27;20046;-74
2023/07/12 12:44:11;;;;;;;3.05;0.77;;;;;;;22.37;69.72;101106.97;5078451;27;20138;-72
2023/07/12 12:47:00;;;;;;;1.70;0.70;;;;;;;22.36;72.02;101113.38;5082932;27;20508;-74
2023/07/12 12:49:47;;;;;;;1.13;0.70;;;;;;;22.35;72.69;101107.13;5066092;27;20303;-75
2023/07/12 12:52:37;;;;;;;1.90;0.73;;;;;;;22.33;70.90;101111.81;5082331;27;20563;-74
2023/07/12 12:55:23;;;;;;;1.65;0.90;;;;;;;22.37;73.89;101107.84;5085928;27;20032;-74
2023/07/12 12:58:11;;;;;;;1.05;0.82;;;;;;;22.48;72.90;101112.25;5080110;27;20254;-73